Time;durP1;ratioP1;P1;durP2;ratioP2;P2;SDS_P1;SDS_P2;PMS_P1;PMS_P2;Temp;Humidity;BMP_temperature;BMP_pressure;BME280_temperature;BME280_humidity;BME280_pressure;Samples;Min_cycle;Max_cycle;Signal;HPM_P1;HPM_P2
2023/10/28 00:00:09;;;;;;;30.83;14.38;;;10.10;99.90;;;;;;5072066;28;20060;-89
2023/10/28 00:02:56;;;;;;;36.08;14.95;;;10.10;99.90;;;;;;5091969;28;20048;-76
2023/10/28 00:05:42;;;;;;;35.20;15.77;;;10.10;99.90;;;;;;5073779;28;20508;-77
2023/10/28 00:08:28;;;;;;;39.00;15.73;;;10.10;99.90;;;;;;5073511;28;20073;-83
2023/10/28 00:11:19;;;;;;;32.65;14.73;;;10.10;99.90;;;;;;5074943;28;20136;-78
2023/10/28 00:14:05;;;;;;;37.83;15.35;;;10.10;99.90;;;;;;5095562;28;20101;-84
2023/10/28 00:16:51;;;;;;;40.92;17.15;;;10.10;99.90;;;;;;5077886;28;20538;-77
2023/10/28 00:19:37;;;;;;;36.95;16.48;;;10.10;99.90;;;;;;5075356;28;20079;-76
2023/10/28 00:22:24;;;;;;;37.72;16.17;;;10.10;99.90;;;;;;5043652;28;20155;-83
2023/10/28 00:25:11;;;;;;;38.80;15.82;;;10.10;99.90;;;;;;5043051;28;20044;-76
2023/10/28 00:27:58;;;;;;;35.10;16.98;;;10.10;99.90;;;;;;5080396;28;20080;-77
2023/10/28 00:30:44;;;;;;;37.78;16.33;;;10.10;99.90;;;;;;5082511;28;20052;-75
2023/10/28 00:33:30;;;;;;;41.65;16.80;;;10.10;99.90;;;;;;5081709;28;20044;-75
2023/10/28 00:36:16;;;;;;;34.50;16.30;;;10.10;99.90;;;;;;5079176;28;20052;-76
2023/10/28 00:39:03;;;;;;;35.08;16.38;;;10.10;99.90;;;;;;5082131;28;20045;-81
2023/10/28 00:41:49;;;;;;;37.50;16.27;;;10.10;99.90;;;;;;5083287;28;20052;-78
2023/10/28 00:44:35;;;;;;;39.25;16.58;;;10.10;99.90;;;;;;5063830;28;20049;-75
2023/10/28 00:47:26;;;;;;;39.45;15.90;;;10.10;99.90;;;;;;5085828;28;20152;-75
2023/10/28 00:50:14;;;;;;;33.03;15.18;;;10.10;99.90;;;;;;5079933;28;20088;-75
2023/10/28 00:53:02;;;;;;;38.70;16.70;;;10.10;99.90;;;;;;5056309;28;20088;-80
2023/10/28 00:55:51;;;;;;;41.28;18.40;;;10.10;99.90;;;;;;5071255;28;20041;-75
2023/10/28 00:58:39;;;;;;;38.70;16.92;;;10.10;99.90;;;;;;5053483;28;20158;-74
2023/10/28 01:01:25;;;;;;;44.38;18.55;;;10.20;99.90;;;;;;5072062;28;20143;-84
2023/10/28 01:04:13;;;;;;;41.75;19.65;;;10.10;99.90;;;;;;5053632;28;20049;-75
2023/10/28 01:07:00;;;;;;;42.70;19.23;;;10.10;99.90;;;;;;5053924;28;20044;-84
2023/10/28 01:09:47;;;;;;;42.03;19.17;;;10.10;99.90;;;;;;5055580;28;20060;-82
2023/10/28 01:12:33;;;;;;;41.05;19.38;;;10.20;99.90;;;;;;5057635;28;20056;-78
2023/10/28 01:15:19;;;;;;;44.13;19.77;;;10.20;99.90;;;;;;5059669;28;20455;-76
2023/10/28 01:18:05;;;;;;;46.83;19.80;;;10.10;99.90;;;;;;5055246;28;20056;-77
2023/10/28 01:20:51;;;;;;;45.30;18.85;;;10.20;99.90;;;;;;5069845;28;20109;-74
2023/10/28 01:23:37;;;;;;;42.72;18.75;;;10.20;99.90;;;;;;5079646;28;20143;-74
2023/10/28 01:26:25;;;;;;;44.13;19.83;;;10.20;99.90;;;;;;5081161;28;20048;-79
2023/10/28 01:29:12;;;;;;;49.88;21.00;;;10.20;99.90;;;;;;5076974;28;20082;-74
2023/10/28 01:31:58;;;;;;;44.92;20.88;;;10.20;99.90;;;;;;5073748;28;20513;-74
2023/10/28 01:34:50;;;;;;;47.55;22.17;;;10.20;99.90;;;;;;5073468;28;20052;-79
2023/10/28 01:37:37;;;;;;;47.30;21.75;;;10.20;99.90;;;;;;5091584;28;20052;-80
2023/10/28 01:40:24;;;;;;;53.63;23.23;;;10.20;99.90;;;;;;5091644;28;20143;-77
2023/10/28 01:43:11;;;;;;;50.20;21.67;;;10.20;99.90;;;;;;5073856;28;20056;-77
2023/10/28 01:45:57;;;;;;;55.00;23.42;;;10.20;99.90;;;;;;5073560;28;20691;-77
2023/10/28 01:48:45;;;;;;;56.53;25.00;;;10.30;99.90;;;;;;5072503;28;20067;-75
2023/10/28 01:51:31;;;;;;;61.55;24.65;;;10.30;99.90;;;;;;5073747;28;20044;-78
2023/10/28 01:54:16;;;;;;;52.70;24.10;;;10.30;99.90;;;;;;5059820;28;20090;-83
2023/10/28 01:57:05;;;;;;;64.68;26.98;;;10.30;99.90;;;;;;5073690;28;20563;-79
2023/10/28 01:59:52;;;;;;;70.65;26.80;;;10.30;99.90;;;;;;5072139;28;20518;-81
2023/10/28 02:02:39;;;;;;;63.13;26.58;;;10.20;99.90;;;;;;5076363;28;20091;-74
2023/10/28 02:05:25;;;;;;;55.63;24.67;;;10.30;99.90;;;;;;5072518;28;20096;-76
2023/10/28 02:08:11;;;;;;;56.03;25.85;;;10.20;99.90;;;;;;5073920;28;20055;-80
2023/10/28 02:10:57;;;;;;;71.32;27.25;;;10.30;99.90;;;;;;5073496;28;20464;-75
2023/10/28 02:13:43;;;;;;;55.05;24.98;;;10.30;99.90;;;;;;5072174;28;20051;-78
2023/10/28 02:16:29;;;;;;;58.45;25.20;;;10.30;99.90;;;;;;5073610;28;20138;-78
2023/10/28 02:19:17;;;;;;;60.67;27.70;;;10.30;99.90;;;;;;5089643;28;20050;-78
2023/10/28 02:22:03;;;;;;;69.07;28.27;;;10.30;99.90;;;;;;5058324;28;20090;-74
2023/10/28 02:24:49;;;;;;;67.75;30.55;;;10.30;99.90;;;;;;5072354;28;20087;-76
2023/10/28 02:27:37;;;;;;;66.63;30.60;;;10.30;99.90;;;;;;5073110;28;20059;-84
2023/10/28 02:30:23;;;;;;;58.33;29.13;;;10.20;99.90;;;;;;5090589;28;20118;-76
2023/10/28 02:33:09;;;;;;;59.80;29.05;;;10.20;99.90;;;;;;5091626;28;20048;-75
2023/10/28 02:35:55;;;;;;;64.80;30.00;;;10.20;99.90;;;;;;5072901;28;20389;-78
2023/10/28 02:38:41;;;;;;;70.97;30.98;;;10.20;99.90;;;;;;5073091;28;20056;-80
2023/10/28 02:41:28;;;;;;;63.15;29.10;;;10.20;99.90;;;;;;5072221;28;20074;-77
2023/10/28 02:44:14;;;;;;;67.45;30.17;;;10.20;99.90;;;;;;5073382;28;20503;-88
2023/10/28 02:47:00;;;;;;;59.05;29.30;;;10.10;99.90;;;;;;5058585;28;20083;-80
2023/10/28 02:49:46;;;;;;;61.58;30.52;;;10.10;99.90;;;;;;5076129;28;20095;-80
2023/10/28 02:52:32;;;;;;;62.75;30.23;;;10.00;99.90;;;;;;5074647;28;20059;-86
2023/10/28 02:55:18;;;;;;;62.33;29.55;;;10.10;99.90;;;;;;5077265;28;20055;-78
2023/10/28 02:58:04;;;;;;;68.30;31.73;;;10.00;99.90;;;;;;5093957;28;20040;-78
2023/10/28 03:00:50;;;;;;;73.85;31.52;;;10.00;99.90;;;;;;5078791;28;20052;-74
2023/10/28 03:03:36;;;;;;;72.50;31.55;;;10.00;99.90;;;;;;5076944;28;20055;-77
2023/10/28 03:06:22;;;;;;;64.55;30.00;;;10.00;99.90;;;;;;5076576;28;20098;-74
2023/10/28 03:09:08;;;;;;;66.07;30.33;;;10.00;99.90;;;;;;5072677;28;20070;-74
2023/10/28 03:11:55;;;;;;;70.22;31.02;;;10.00;99.90;;;;;;5072646;28;20135;-75
2023/10/28 03:14:41;;;;;;;76.53;31.67;;;10.00;99.90;;;;;;5075447;28;20105;-78
2023/10/28 03:17:27;;;;;;;73.25;33.05;;;10.00;99.90;;;;;;5072237;28;20056;-74
2023/10/28 03:20:19;;;;;;;71.30;31.23;;;10.00;99.90;;;;;;5089734;28;20051;-74
2023/10/28 03:23:05;;;;;;;61.22;29.02;;;10.00;99.90;;;;;;5073094;28;20086;-74
2023/10/28 03:25:52;;;;;;;64.53;29.80;;;10.00;99.90;;;;;;5072612;28;20048;-83
2023/10/28 03:28:37;;;;;;;65.35;30.00;;;10.00;99.90;;;;;;5071967;28;20048;-76
2023/10/28 03:31:23;;;;;;;73.13;31.50;;;9.90;99.90;;;;;;5073459;28;20147;-74
2023/10/28 03:34:09;;;;;;;68.85;31.25;;;9.90;99.90;;;;;;5072231;28;20052;-74
2023/10/28 03:36:55;;;;;;;82.47;32.97;;;9.90;99.90;;;;;;5072587;28;20048;-76
2023/10/28 03:39:43;;;;;;;68.00;29.67;;;9.90;99.90;;;;;;5071750;28;20044;-73
2023/10/28 03:42:29;;;;;;;68.82;30.70;;;9.80;99.90;;;;;;5090690;28;20139;-74
2023/10/28 03:45:16;;;;;;;65.00;28.15;;;9.80;99.90;;;;;;5071813;28;20403;-76
2023/10/28 03:48:02;;;;;;;66.45;27.25;;;9.70;99.90;;;;;;5076160;28;20140;-78
2023/10/28 03:51:00;;;;;;;69.22;29.13;;;9.70;99.90;;;;;;5075993;28;20056;-74
2023/10/28 03:53:46;;;;;;;67.18;29.50;;;9.60;99.90;;;;;;5075902;28;20143;-75
2023/10/28 03:56:33;;;;;;;66.68;27.50;;;9.60;99.90;;;;;;5075426;28;20579;-77
2023/10/28 03:59:20;;;;;;;69.35;27.25;;;9.60;99.90;;;;;;5075440;28;20052;-77
2023/10/28 04:02:05;;;;;;;67.15;28.67;;;9.60;99.90;;;;;;5061290;28;20068;-81
2023/10/28 04:04:52;;;;;;;67.30;27.05;;;9.50;99.90;;;;;;5075905;28;20407;-82
2023/10/28 04:07:38;;;;;;;68.82;28.65;;;9.50;99.90;;;;;;5079433;28;20044;-85
2023/10/28 04:10:24;;;;;;;60.22;26.70;;;9.50;99.90;;;;;;5094515;28;20488;-83
2023/10/28 04:13:12;;;;;;;72.05;27.83;;;9.40;99.90;;;;;;5077550;28;20055;-76
2023/10/28 04:15:59;;;;;;;62.35;27.23;;;9.30;99.90;;;;;;5077263;28;20062;-76
2023/10/28 04:18:45;;;;;;;54.88;24.85;;;9.30;99.90;;;;;;5077478;28;20102;-74
2023/10/28 04:21:31;;;;;;;56.97;25.98;;;9.30;99.90;;;;;;5075129;28;20055;-74
2023/10/28 04:24:18;;;;;;;63.15;26.45;;;9.20;99.90;;;;;;5075014;28;20063;-75
2023/10/28 04:27:04;;;;;;;61.17;25.75;;;9.20;99.90;;;;;;5076960;28;20094;-76
2023/10/28 04:29:50;;;;;;;68.43;28.67;;;9.20;99.90;;;;;;5076860;28;20090;-74
2023/10/28 04:32:39;;;;;;;76.93;27.55;;;9.10;99.90;;;;;;5075427;28;20052;-74
2023/10/28 04:35:25;;;;;;;66.18;26.67;;;9.10;99.90;;;;;;5076282;28;20083;-78
2023/10/28 04:38:11;;;;;;;75.35;26.67;;;9.10;99.90;;;;;;5073946;28;20052;-77
2023/10/28 04:40:57;;;;;;;79.88;28.83;;;9.10;99.90;;;;;;5074904;28;20611;-77
2023/10/28 04:43:44;;;;;;;70.63;27.33;;;9.00;99.90;;;;;;5093691;28;20123;-76
2023/10/28 04:46:30;;;;;;;67.55;27.08;;;9.00;99.90;;;;;;5092739;28;20048;-73
2023/10/28 04:49:15;;;;;;;65.97;26.65;;;9.00;99.90;;;;;;5092972;28;20185;-75
2023/10/28 04:52:02;;;;;;;67.18;24.83;;;9.00;99.90;;;;;;5074214;28;20048;-86
2023/10/28 04:54:48;;;;;;;64.07;25.15;;;9.00;99.90;;;;;;5092072;28;20048;-77
2023/10/28 04:57:34;;;;;;;63.42;25.60;;;9.00;99.90;;;;;;5073728;28;20055;-84
2023/10/28 05:00:20;;;;;;;69.28;26.40;;;9.00;99.90;;;;;;5060475;28;20091;-76
2023/10/28 05:03:06;;;;;;;72.43;26.55;;;8.90;99.90;;;;;;5093706;28;20595;-89
2023/10/28 05:05:52;;;;;;;65.95;26.55;;;9.00;99.90;;;;;;5093408;28;20131;-87
2023/10/28 05:08:38;;;;;;;71.00;28.10;;;9.00;99.90;;;;;;5078759;28;20135;-80
2023/10/28 05:11:25;;;;;;;56.67;25.52;;;9.00;99.90;;;;;;5093693;28;20052;-79
2023/10/28 05:14:11;;;;;;;66.18;27.95;;;9.00;99.90;;;;;;5074786;28;20063;-81
2023/10/28 05:16:57;;;;;;;70.72;27.10;;;9.00;99.90;;;;;;5060376;28;20083;-84
2023/10/28 05:19:43;;;;;;;63.63;24.98;;;9.00;99.90;;;;;;5074743;28;20491;-82
2023/10/28 05:22:30;;;;;;;69.70;26.90;;;9.10;99.90;;;;;;5074376;28;20131;-75
2023/10/28 05:25:16;;;;;;;68.97;28.00;;;9.00;99.90;;;;;;5093992;28;20055;-88
2023/10/28 05:28:02;;;;;;;63.35;28.10;;;9.10;99.90;;;;;;5080927;28;20044;-82
2023/10/28 05:30:48;;;;;;;57.50;26.33;;;9.10;99.90;;;;;;5084138;28;20058;-79
2023/10/28 05:33:34;;;;;;;69.32;27.98;;;9.10;99.90;;;;;;5085704;28;20135;-75
2023/10/28 05:36:20;;;;;;;75.88;28.23;;;9.20;99.90;;;;;;5079781;28;20476;-77
2023/10/28 05:39:07;;;;;;;68.72;27.63;;;9.20;99.90;;;;;;5075905;28;20051;-83
2023/10/28 05:41:53;;;;;;;70.03;29.75;;;9.20;99.90;;;;;;5074373;28;20062;-77
2023/10/28 05:44:39;;;;;;;86.05;32.13;;;9.20;99.90;;;;;;5093654;28;20067;-83
2023/10/28 05:47:25;;;;;;;98.68;30.65;;;9.20;99.90;;;;;;5074707;28;20048;-78
2023/10/28 05:50:11;;;;;;;86.22;29.75;;;9.20;99.90;;;;;;5092482;28;20055;-83
2023/10/28 05:52:57;;;;;;;81.03;32.10;;;9.30;99.90;;;;;;5075129;28;20064;-80
2023/10/28 05:55:44;;;;;;;67.43;29.67;;;9.30;99.90;;;;;;5093792;28;20052;-84
2023/10/28 05:58:30;;;;;;;82.32;31.13;;;9.30;99.90;;;;;;5095065;28;20051;-90
2023/10/28 06:01:16;;;;;;;74.10;31.58;;;9.30;99.90;;;;;;5079418;28;20099;-86
2023/10/28 06:04:03;;;;;;;82.65;32.33;;;9.30;99.90;;;;;;5079895;28;20678;-80
2023/10/28 06:06:49;;;;;;;77.10;28.95;;;9.30;99.90;;;;;;5074545;28;20052;-77
2023/10/28 06:09:36;;;;;;;86.78;32.15;;;9.40;99.90;;;;;;5073953;28;20055;-82
2023/10/28 06:12:22;;;;;;;80.20;32.92;;;9.40;99.90;;;;;;5092620;28;20052;-77
2023/10/28 06:15:09;;;;;;;77.57;31.58;;;9.40;99.90;;;;;;5077419;28;20158;-86
2023/10/28 06:17:57;;;;;;;70.63;30.83;;;9.40;99.90;;;;;;5058498;28;20044;-84
2023/10/28 06:20:46;;;;;;;75.75;30.75;;;9.40;99.90;;;;;;5058930;28;20052;-76
2023/10/28 06:23:33;;;;;;;80.72;30.40;;;9.50;99.90;;;;;;5072905;28;20052;-78
2023/10/28 06:26:19;;;;;;;69.40;31.10;;;9.50;99.90;;;;;;5058940;28;20047;-78
2023/10/28 06:29:05;;;;;;;71.82;29.27;;;9.50;99.90;;;;;;5072454;28;20044;-78
2023/10/28 06:31:51;;;;;;;67.65;28.60;;;9.50;99.90;;;;;;5059289;28;20055;-83
2023/10/28 06:34:38;;;;;;;61.70;28.23;;;9.50;99.90;;;;;;5092667;28;20518;-86
2023/10/28 06:37:24;;;;;;;67.55;29.85;;;9.50;99.90;;;;;;5073360;28;20071;-74
2023/10/28 06:40:10;;;;;;;75.28;28.15;;;9.60;99.90;;;;;;5072323;28;20048;-77
2023/10/28 06:42:56;;;;;;;63.55;28.92;;;9.50;99.90;;;;;;5073648;28;20082;-73
2023/10/28 06:45:43;;;;;;;80.90;29.55;;;9.60;99.90;;;;;;5073366;28;20044;-80
2023/10/28 06:48:32;;;;;;;67.75;28.83;;;9.60;99.90;;;;;;5073072;28;20423;-82
2023/10/28 06:51:18;;;;;;;72.10;29.92;;;9.60;99.90;;;;;;5072635;28;20059;-81
2023/10/28 06:54:06;;;;;;;66.22;27.67;;;9.60;99.90;;;;;;5057882;28;20051;-86
2023/10/28 06:56:52;;;;;;;60.95;27.95;;;9.70;99.90;;;;;;5073173;28;20507;-88
2023/10/28 06:59:38;;;;;;;68.90;28.42;;;9.70;99.90;;;;;;5090739;28;20051;-87
2023/10/28 07:02:24;;;;;;;62.08;28.55;;;9.70;99.90;;;;;;5058470;28;20486;-76
2023/10/28 07:05:10;;;;;;;66.18;29.02;;;9.70;99.90;;;;;;5058485;28;20055;-89
2023/10/28 07:07:56;;;;;;;65.60;28.77;;;9.70;99.90;;;;;;5072477;28;20187;-84
2023/10/28 07:10:43;;;;;;;59.42;25.20;;;9.80;99.90;;;;;;5072662;28;20060;-81
2023/10/28 07:13:29;;;;;;;72.70;28.75;;;9.80;99.90;;;;;;5072843;28;20056;-84
2023/10/28 07:16:17;;;;;;;53.33;25.10;;;9.80;99.90;;;;;;5074133;28;20494;-82
2023/10/28 07:19:03;;;;;;;55.53;25.13;;;9.90;99.90;;;;;;5090439;28;20051;-86
2023/10/28 07:21:49;;;;;;;64.35;26.85;;;9.90;99.90;;;;;;5092847;28;20190;-83
2023/10/28 07:24:36;;;;;;;63.60;28.13;;;9.90;99.90;;;;;;5077358;28;20044;-84
2023/10/28 07:27:22;;;;;;;48.50;22.77;;;9.90;99.90;;;;;;5094832;28;20071;-88
2023/10/28 07:30:10;;;;;;;52.35;23.67;;;10.00;99.90;;;;;;5075627;28;20106;-84
2023/10/28 07:32:56;;;;;;;48.90;22.63;;;10.00;99.90;;;;;;5095345;28;20078;-84
2023/10/28 07:35:44;;;;;;;47.05;21.20;;;10.10;99.90;;;;;;5076132;28;20048;-83
2023/10/28 07:38:30;;;;;;;50.85;20.55;;;10.10;99.90;;;;;;5076228;28;20059;-83
2023/10/28 07:41:17;;;;;;;42.55;21.10;;;10.20;99.90;;;;;;5075802;28;20052;-83
2023/10/28 07:44:04;;;;;;;41.05;18.70;;;10.20;99.90;;;;;;5064937;28;20047;-81
2023/10/28 07:46:50;;;;;;;40.50;19.30;;;10.30;99.90;;;;;;5097684;28;20071;-81
2023/10/28 07:49:36;;;;;;;49.17;20.23;;;10.40;99.90;;;;;;5077267;28;20060;-78
2023/10/28 07:52:22;;;;;;;32.72;16.85;;;10.40;99.90;;;;;;5075905;28;20052;-75
2023/10/28 07:55:08;;;;;;;35.50;16.13;;;10.50;99.90;;;;;;5061259;28;20056;-85
2023/10/28 07:57:54;;;;;;;36.65;16.70;;;10.50;99.90;;;;;;5075189;28;20040;-80
2023/10/28 08:00:40;;;;;;;29.77;15.30;;;10.60;99.90;;;;;;5092965;28;20078;-76
2023/10/28 08:03:28;;;;;;;26.33;15.02;;;10.60;99.90;;;;;;5078758;28;20087;-78
2023/10/28 08:06:14;;;;;;;31.77;15.82;;;10.60;99.90;;;;;;5101430;28;20044;-78
2023/10/28 08:09:01;;;;;;;35.05;14.90;;;10.70;99.90;;;;;;5094724;28;20144;-75
2023/10/28 08:11:47;;;;;;;26.58;14.75;;;10.70;99.90;;;;;;5075880;28;20117;-79
2023/10/28 08:14:34;;;;;;;27.15;14.27;;;10.80;99.90;;;;;;5074546;28;20130;-76
2023/10/28 08:17:21;;;;;;;28.17;12.88;;;10.80;99.90;;;;;;5075539;28;20131;-73
2023/10/28 08:20:08;;;;;;;22.17;12.65;;;10.90;99.90;;;;;;5073874;28;20105;-76
2023/10/28 08:22:56;;;;;;;25.05;10.98;;;10.90;99.90;;;;;;5073640;28;20450;-79
2023/10/28 08:25:42;;;;;;;22.83;11.50;;;11.00;99.90;;;;;;5077574;28;20044;-75
2023/10/28 08:28:28;;;;;;;19.15;10.20;;;11.10;99.90;;;;;;5092864;28;20044;-84
2023/10/28 08:31:14;;;;;;;18.55;10.27;;;11.30;99.90;;;;;;5094046;28;20048;-77
2023/10/28 08:34:01;;;;;;;19.83;9.75;;;11.40;99.90;;;;;;5095646;28;20518;-76
2023/10/28 08:36:47;;;;;;;21.02;9.77;;;11.40;99.90;;;;;;5095224;28;20495;-80
2023/10/28 08:39:33;;;;;;;19.52;8.45;;;11.50;99.90;;;;;;5095023;28;20044;-78
2023/10/28 08:42:20;;;;;;;15.65;8.00;;;11.60;99.90;;;;;;5095210;28;20494;-77
2023/10/28 08:45:08;;;;;;;16.42;7.90;;;11.60;99.90;;;;;;5095485;28;20769;-75
2023/10/28 08:47:55;;;;;;;16.58;7.55;;;11.50;99.90;;;;;;5095952;28;20047;-81
2023/10/28 08:50:45;;;;;;;15.75;7.47;;;11.50;99.90;;;;;;5100764;28;20487;-82
2023/10/28 08:53:33;;;;;;;20.83;8.40;;;11.60;99.90;;;;;;5096877;28;20150;-78
2023/10/28 08:56:23;;;;;;;17.02;6.97;;;11.60;99.90;;;;;;5083264;28;20048;-82
2023/10/28 08:59:10;;;;;;;12.23;6.80;;;11.70;99.90;;;;;;5095886;28;20044;-83
2023/10/28 09:01:58;;;;;;;14.48;6.63;;;11.80;99.90;;;;;;5094930;28;20051;-81
2023/10/28 09:04:44;;;;;;;16.38;6.93;;;11.80;99.90;;;;;;5115919;28;20086;-87
2023/10/28 09:07:30;;;;;;;15.88;6.72;;;11.90;99.90;;;;;;5113808;28;20536;-76
2023/10/28 09:10:16;;;;;;;14.68;7.25;;;12.10;99.90;;;;;;5096254;28;20057;-79
2023/10/28 09:13:07;;;;;;;12.10;6.13;;;12.20;99.90;;;;;;5083980;28;20093;-78
2023/10/28 09:15:53;;;;;;;17.00;5.68;;;12.20;99.90;;;;;;5116144;28;20094;-80
2023/10/28 09:18:40;;;;;;;8.50;5.35;;;12.20;99.90;;;;;;5113809;28;20054;-86
2023/10/28 09:21:26;;;;;;;15.18;5.28;;;12.10;99.90;;;;;;5112372;28;20079;-84
2023/10/28 09:24:12;;;;;;;12.27;5.22;;;12.20;99.90;;;;;;5112322;28;20557;-75
2023/10/28 09:26:58;;;;;;;11.85;5.75;;;12.10;99.90;;;;;;5094165;28;20052;-84
2023/10/28 09:29:45;;;;;;;12.93;5.55;;;12.00;99.90;;;;;;5113242;28;20047;-79
2023/10/28 09:32:33;;;;;;;9.80;5.38;;;12.00;99.90;;;;;;5113682;28;20094;-83
2023/10/28 09:35:20;;;;;;;13.50;5.90;;;11.90;99.90;;;;;;5113959;28;20471;-82
2023/10/28 09:38:07;;;;;;;9.02;5.57;;;11.90;99.90;;;;;;5101455;28;20129;-82
2023/10/28 09:40:56;;;;;;;12.90;6.70;;;11.90;99.90;;;;;;5114574;28;20058;-83
2023/10/28 09:43:44;;;;;;;15.50;6.18;;;12.00;99.90;;;;;;5113817;28;20090;-86
2023/10/28 09:46:32;;;;;;;13.27;6.30;;;11.90;99.90;;;;;;5098961;28;20052;-81
2023/10/28 09:49:23;;;;;;;12.45;5.53;;;11.90;99.90;;;;;;5115326;28;20047;-84
2023/10/28 09:52:12;;;;;;;15.90;7.10;;;12.00;99.90;;;;;;5117919;28;20056;-74
2023/10/28 09:55:05;;;;;;;10.02;5.65;;;12.00;99.90;;;;;;5099161;28;20062;-86
2023/10/28 09:57:56;;;;;;;11.25;5.57;;;12.00;99.90;;;;;;5097489;28;20052;-76
2023/10/28 10:00:44;;;;;;;9.15;5.65;;;12.00;99.90;;;;;;5093782;28;20105;-85
2023/10/28 10:03:42;;;;;;;10.98;5.72;;;12.10;99.90;;;;;;5094630;28;20039;-76
2023/10/28 10:06:28;;;;;;;9.52;5.63;;;12.00;99.90;;;;;;5093426;28;20048;-78
2023/10/28 10:09:18;;;;;;;10.30;5.15;;;12.00;99.90;;;;;;5093184;28;20083;-77
2023/10/28 10:12:05;;;;;;;12.77;5.47;;;11.90;99.90;;;;;;5094068;28;20057;-79
2023/10/28 10:14:53;;;;;;;12.05;6.10;;;11.90;99.90;;;;;;5079904;28;20063;-77
2023/10/28 10:18:10;;;;;;;8.73;5.05;;;11.90;99.90;;;;;;5080637;28;20047;-78
2023/10/28 10:21:04;;;;;;;13.38;5.47;;;11.90;99.90;;;;;;5089714;28;20566;-83
2023/10/28 10:23:52;;;;;;;16.52;5.68;;;11.90;99.90;;;;;;5045442;28;20060;-77
2023/10/28 10:26:38;;;;;;;16.02;5.60;;;11.90;99.90;;;;;;5091135;28;20139;-77
2023/10/28 10:29:29;;;;;;;16.08;5.78;;;11.80;99.90;;;;;;5073830;28;20074;-78
2023/10/28 10:32:18;;;;;;;15.18;5.65;;;11.80;99.90;;;;;;5073507;28;20150;-85
2023/10/28 10:35:10;;;;;;;11.25;5.38;;;11.80;99.90;;;;;;5091641;28;20389;-78
2023/10/28 10:38:04;;;;;;;25.00;6.82;;;11.80;99.90;;;;;;5077200;28;20630;-84
2023/10/28 10:40:52;;;;;;;12.43;5.78;;;11.80;99.90;;;;;;5090988;28;20123;-81
2023/10/28 10:43:38;;;;;;;15.02;5.95;;;11.70;99.90;;;;;;5079227;28;20040;-80
2023/10/28 10:46:24;;;;;;;14.05;5.20;;;11.70;99.90;;;;;;5073563;28;20399;-78
2023/10/28 10:49:11;;;;;;;8.23;5.25;;;11.70;99.90;;;;;;5063556;28;20048;-79
2023/10/28 10:52:01;;;;;;;11.30;5.38;;;11.70;99.90;;;;;;5077802;28;20056;-82
2023/10/28 10:54:47;;;;;;;12.30;5.60;;;11.80;99.90;;;;;;5060245;28;20066;-82
2023/10/28 10:57:36;;;;;;;10.77;4.80;;;11.80;99.90;;;;;;5060116;28;20052;-83
2023/10/28 11:00:26;;;;;;;11.15;4.95;;;11.80;99.90;;;;;;5060729;28;20056;-76
2023/10/28 11:03:12;;;;;;;12.30;4.85;;;11.80;99.90;;;;;;5091766;28;20158;-74
2023/10/28 11:05:59;;;;;;;11.77;5.45;;;11.80;99.90;;;;;;5059147;28;20056;-82
2023/10/28 11:08:45;;;;;;;12.38;5.68;;;11.80;99.90;;;;;;5071647;28;20087;-79
2023/10/28 11:11:35;;;;;;;17.77;5.63;;;11.80;99.90;;;;;;5071964;28;20107;-74
2023/10/28 11:14:21;;;;;;;11.82;5.35;;;11.80;99.90;;;;;;5092196;28;20052;-88
2023/10/28 11:17:08;;;;;;;11.23;5.78;;;11.90;99.90;;;;;;5075154;28;20060;-81
2023/10/28 11:19:56;;;;;;;13.25;5.00;;;11.90;99.90;;;;;;5090604;28;20457;-76
2023/10/28 11:22:42;;;;;;;14.77;5.28;;;12.00;99.90;;;;;;5059673;28;20054;-79
2023/10/28 11:25:36;;;;;;;12.85;5.60;;;12.10;99.90;;;;;;5059713;28;20040;-79
2023/10/28 11:28:32;;;;;;;12.50;5.40;;;12.30;99.90;;;;;;5090926;28;20055;-77
2023/10/28 11:31:20;;;;;;;10.52;4.78;;;12.30;99.90;;;;;;5059172;28;20052;-77
2023/10/28 11:34:06;;;;;;;12.40;5.22;;;12.40;99.90;;;;;;5072986;28;20056;-76
2023/10/28 11:36:53;;;;;;;10.77;4.57;;;12.40;99.90;;;;;;5091088;28;20139;-78
2023/10/28 11:39:47;;;;;;;15.02;4.93;;;12.40;99.90;;;;;;5058706;28;20403;-80
2023/10/28 11:42:34;;;;;;;17.27;5.50;;;12.40;99.90;;;;;;5071446;28;20063;-77
2023/10/28 11:45:21;;;;;;;9.45;4.55;;;12.30;99.90;;;;;;5069914;28;20052;-74
2023/10/28 11:48:08;;;;;;;8.82;4.15;;;12.30;99.90;;;;;;5074303;28;20144;-79
2023/10/28 11:50:55;;;;;;;10.57;3.78;;;12.30;99.90;;;;;;5071234;28;20063;-78
2023/10/28 11:53:47;;;;;;;8.27;3.85;;;12.30;99.90;;;;;;5073616;28;20044;-83
2023/10/28 11:56:36;;;;;;;10.32;4.18;;;12.20;99.90;;;;;;5062270;28;20048;-76
2023/10/28 11:59:23;;;;;;;12.95;4.93;;;12.20;99.90;;;;;;5092292;28;20531;-75
2023/10/28 12:02:09;;;;;;;12.88;5.95;;;12.20;99.90;;;;;;5057601;28;20086;-77
2023/10/28 12:04:55;;;;;;;9.63;4.72;;;12.20;99.90;;;;;;5072666;28;20431;-81
2023/10/28 12:07:41;;;;;;;9.48;4.78;;;12.20;99.90;;;;;;5061513;28;20139;-82
2023/10/28 12:10:28;;;;;;;9.88;4.68;;;12.30;99.90;;;;;;5093615;28;20052;-80
2023/10/28 12:13:17;;;;;;;12.50;4.60;;;12.30;99.90;;;;;;5076037;28;20139;-84
2023/10/28 12:16:05;;;;;;;11.80;5.18;;;12.30;99.90;;;;;;5076194;28;20048;-90
2023/10/28 12:18:51;;;;;;;9.27;4.32;;;12.40;99.90;;;;;;5063000;28;20159;-83
2023/10/28 12:21:37;;;;;;;11.55;5.82;;;12.40;99.90;;;;;;5080760;28;20106;-84
2023/10/28 12:24:25;;;;;;;15.32;5.13;;;12.40;99.90;;;;;;5084065;28;20044;-85
2023/10/28 12:27:11;;;;;;;9.27;4.82;;;12.30;99.90;;;;;;5106835;28;20040;-90
2023/10/28 12:29:57;;;;;;;13.98;4.85;;;12.40;99.90;;;;;;5094733;28;20139;-83
2023/10/28 12:32:43;;;;;;;12.40;4.78;;;12.60;99.90;;;;;;5062176;28;20488;-81
2023/10/28 12:35:29;;;;;;;10.52;3.95;;;12.60;99.90;;;;;;5074628;28;20053;-75
2023/10/28 12:38:15;;;;;;;9.73;4.20;;;12.70;99.90;;;;;;5074071;28;20052;-83
2023/10/28 12:41:02;;;;;;;14.98;4.20;;;12.60;99.90;;;;;;5076465;28;20052;-79
2023/10/28 12:43:49;;;;;;;11.63;4.63;;;12.60;99.90;;;;;;5093079;28;20052;-88
2023/10/28 12:46:35;;;;;;;15.55;3.78;;;12.60;99.90;;;;;;5074760;28;20055;-82
2023/10/28 12:49:21;;;;;;;10.48;3.95;;;12.60;99.90;;;;;;5061729;28;20056;-86
2023/10/28 12:52:10;;;;;;;10.32;4.40;;;12.60;99.90;;;;;;5094594;28;20050;-74
2023/10/28 12:55:02;;;;;;;10.23;3.47;;;12.60;99.90;;;;;;5074681;28;20522;-77
2023/10/28 12:57:49;;;;;;;9.27;3.30;;;12.50;99.90;;;;;;5076385;28;20139;-94
2023/10/28 13:00:37;;;;;;;12.85;3.40;;;12.50;99.90;;;;;;5062373;28;20048;-83
2023/10/28 13:03:23;;;;;;;11.98;4.45;;;12.50;99.90;;;;;;5079324;28;20539;-93
2023/10/28 13:06:09;;;;;;;9.90;3.83;;;12.60;99.90;;;;;;5097742;28;20044;-82
2023/10/28 13:08:55;;;;;;;11.32;4.10;;;12.50;99.90;;;;;;5083045;28;20040;-78
2023/10/28 13:11:41;;;;;;;12.80;4.18;;;12.50;99.90;;;;;;5089905;28;20044;-79
2023/10/28 13:14:27;;;;;;;12.77;3.60;;;12.50;99.90;;;;;;5090213;28;20467;-82
2023/10/28 13:17:13;;;;;;;11.98;4.38;;;12.50;99.90;;;;;;5085831;28;20062;-89
2023/10/28 13:19:59;;;;;;;10.27;4.13;;;12.50;99.90;;;;;;5092080;28;20057;-80
2023/10/28 13:22:45;;;;;;;11.05;3.58;;;12.60;99.90;;;;;;5071126;28;20049;-79
2023/10/28 13:25:31;;;;;;;7.75;3.20;;;12.60;99.90;;;;;;5042489;28;20501;-82
2023/10/28 13:28:17;;;;;;;9.05;3.58;;;12.70;99.90;;;;;;5075102;28;20048;-89
2023/10/28 13:31:04;;;;;;;29.05;4.13;;;12.70;99.90;;;;;;5075360;28;20076;-89
2023/10/28 13:33:50;;;;;;;14.00;3.65;;;12.80;99.90;;;;;;5077517;28;20044;-91
2023/10/28 13:36:36;;;;;;;10.60;3.95;;;12.90;99.90;;;;;;5052268;28;20107;-83
2023/10/28 13:39:22;;;;;;;13.65;4.03;;;12.90;99.90;;;;;;5074352;28;20055;-88
2023/10/28 13:42:08;;;;;;;10.35;4.13;;;13.00;99.90;;;;;;5056874;28;20056;-82
2023/10/28 13:44:58;;;;;;;7.35;4.25;;;13.00;99.90;;;;;;5073172;28;20044;-86
2023/10/28 13:47:44;;;;;;;12.15;3.78;;;13.10;99.90;;;;;;5053108;28;20056;-90
2023/10/28 13:50:33;;;;;;;9.98;3.42;;;13.20;99.90;;;;;;5040678;28;20052;-84
2023/10/28 13:53:20;;;;;;;10.60;3.17;;;13.20;99.90;;;;;;5057733;28;20107;-86
2023/10/28 13:56:06;;;;;;;8.45;2.95;;;13.20;99.90;;;;;;5058810;28;20139;-84
2023/10/28 13:58:54;;;;;;;10.13;3.35;;;13.20;99.90;;;;;;5076987;28;20040;-95
2023/10/28 14:01:40;;;;;;;10.05;3.38;;;13.30;99.90;;;;;;5076830;28;20071;-89
2023/10/28 14:04:26;;;;;;;9.77;3.35;;;13.30;99.90;;;;;;5074407;28;20075;-89
2023/10/28 14:07:12;;;;;;;10.10;4.15;;;13.30;99.90;;;;;;5061130;28;20603;-82
2023/10/28 14:09:58;;;;;;;6.70;3.15;;;13.30;99.90;;;;;;5073535;28;20056;-77
2023/10/28 14:12:45;;;;;;;11.63;4.18;;;13.40;99.90;;;;;;5055178;28;20378;-81
2023/10/28 14:15:31;;;;;;;7.57;3.45;;;13.40;99.90;;;;;;5051092;28;20582;-80